Ambierville, New York
Current Conditions -  °F | °C
As of 1:53 PM on Thursday 18 Dec 2014 (Local Time) from KBGM Reporting Station
Overcast Overcast  
Wind Chill: -7°   Ceiling: 600
Heat Index: -2°   Visibility: 10mi
Dew Point: -3°   Wind: 13mph
Humidity: 89%   Direction: 310°NW
Pressure: 29.92"   Gusts: 23mph
Location:  42.5358°N, 75.3475°W
Report Text: KBGM 181853Z 31011G20KT 10SM OVC006 M02/M03 A2992 RMK AO2 SLP152 T10171033
Loading
Personal Weather Stations






























Interactive Weather Map New forecast layout! Learn more

10-Day Weather Forecast

Advertisements
Track Severe Weather on mobile